MUBA

Gustavo Rizo Airport

Airport
ICAO code
MUBA
IATA Code
BCA
Summary
ICAO Region
CARSAM
ICAO Territory
Location

Baracoa, Guantanamo

Serving
Baracoa
Elevation
26 ft
Coordinates
20° 21' 30" N , 74° 30' 15" W
KCC
Metar
MUBA 221500Z AUTO 36009KT 23/13 Q1018

Domestic airport serving Baracoa, a city in the Cuban province of Guantanamo.

Climatology

Tropical Savanna climate (Köppen climate classification Aw)

Runways

Designator Length Width Surface Rops
16/34 1850 30 CON No/No

Airport map

Aerial View

SKYbrary Partners:

Safety knowledge contributed by: